Manduri, Brazil
Current Conditions -  °F | °C
As of 2:00 PM on Sunday 23 Nov 2014 (Local Time) from SBBU Reporting Station
Clear Clear  
Wind Chill: 81°   Ceiling: Unl
Heat Index: 85°   Visibility: 6mi
Dew Point: 72°   Wind: 3mph
Humidity: 74%   Direction: 60°ENE
Pressure: 29.97"   Gusts: NA
Location:  23°S, 49.32°W
Report Text: SBBU 231600Z 06003KT CAVOK 27/22 Q1015
Loading
Personal Weather Stations






























Interactive Weather Map New forecast layout! Learn more

10-Day Weather Forecast

Advertisements
Track Severe Weather on mobile